createdAt,value
2022-10-14T00:00:02.336Z,25.28
2022-10-14T00:02:40.879Z,25.23
2022-10-14T00:05:10.216Z,25.19
2022-10-14T00:07:38.313Z,25.20
2022-10-14T00:10:08.924Z,25.20
2022-10-14T00:12:36.687Z,25.18
2022-10-14T00:15:07.377Z,25.12
2022-10-14T00:17:38.318Z,25.11
2022-10-14T00:20:11.955Z,25.07
2022-10-14T00:22:39.349Z,25.13
2022-10-14T00:25:08.812Z,25.11
2022-10-14T00:27:39.009Z,25.13
2022-10-14T00:30:11.126Z,25.10
2022-10-14T00:32:38.389Z,25.05
2022-10-14T00:35:06.207Z,25.07
2022-10-14T00:37:33.748Z,25.06
2022-10-14T00:40:01.387Z,25.03
2022-10-14T00:42:35.923Z,25.01
2022-10-14T00:45:15.382Z,25.01
2022-10-14T00:47:48.711Z,25.00
2022-10-14T00:50:26.289Z,24.98
2022-10-14T00:52:56.634Z,24.92
2022-10-14T00:55:30.536Z,24.93
2022-10-14T00:58:01.081Z,24.82
2022-10-14T01:00:30.798Z,24.87
2022-10-14T01:03:24.110Z,24.75
2022-10-14T01:06:31.716Z,24.74
2022-10-14T01:09:04.291Z,24.71
2022-10-14T01:12:10.060Z,24.72
2022-10-14T01:15:24.835Z,24.66
2022-10-14T01:18:34.209Z,24.65
2022-10-14T01:21:10.417Z,24.59
2022-10-14T01:24:14.893Z,24.59
2022-10-14T01:27:11.079Z,24.57
2022-10-14T01:30:26.354Z,24.50
2022-10-14T01:33:34.452Z,24.48
2022-10-14T01:36:21.781Z,24.44
2022-10-14T01:39:13.450Z,24.42
2022-10-14T01:42:00.368Z,24.41
2022-10-14T01:44:38.111Z,24.46
2022-10-14T01:47:20.935Z,24.39
2022-10-14T01:50:05.079Z,24.41
2022-10-14T01:52:47.864Z,24.37
2022-10-14T01:55:22.582Z,24.30
2022-10-14T01:58:09.028Z,24.28
2022-10-14T02:00:48.671Z,24.26
2022-10-14T02:03:19.746Z,24.27
2022-10-14T02:05:58.380Z,24.25
2022-10-14T02:08:42.295Z,24.26
2022-10-14T02:11:17.593Z,24.23
2022-10-14T02:14:26.257Z,24.18
2022-10-14T02:17:02.395Z,24.17
2022-10-14T02:19:44.983Z,24.15
2022-10-14T02:23:07.046Z,24.10
2022-10-14T02:25:41.986Z,24.07
2022-10-14T02:28:31.720Z,24.09
2022-10-14T02:31:19.234Z,24.03
2022-10-14T02:33:55.344Z,24.05
2022-10-14T02:36:32.554Z,23.99
2022-10-14T02:39:08.538Z,23.97
2022-10-14T02:41:42.245Z,24.01
2022-10-14T02:44:12.556Z,23.99
2022-10-14T02:46:47.702Z,24.00
2022-10-14T02:49:19.660Z,23.96
2022-10-14T02:51:50.365Z,23.89
2022-10-14T02:54:18.680Z,23.88
2022-10-14T02:56:49.408Z,23.84
2022-10-14T02:59:20.246Z,23.78
2022-10-14T03:01:58.996Z,23.70
2022-10-14T03:04:34.107Z,23.66
2022-10-14T03:07:07.958Z,23.63
2022-10-14T03:09:47.749Z,23.51
2022-10-14T03:12:23.802Z,23.53
2022-10-14T03:15:00.372Z,23.49
2022-10-14T03:17:37.339Z,23.45
2022-10-14T03:20:16.381Z,23.42
2022-10-14T03:23:02.389Z,23.42
2022-10-14T03:28:41.116Z,23.33
2022-10-14T03:31:27.574Z,23.08
2022-10-14T03:34:12.742Z,23.21
2022-10-14T03:36:56.934Z,23.19
2022-10-14T03:39:41.620Z,23.16
2022-10-14T03:42:19.953Z,23.08
2022-10-14T03:44:54.730Z,23.02
2022-10-14T03:47:30.556Z,23.06
2022-10-14T03:50:03.540Z,23.05
2022-10-14T03:52:46.591Z,23.10
2022-10-14T03:55:33.105Z,23.12
2022-10-14T03:58:05.241Z,23.10
2022-10-14T04:00:37.427Z,23.09
2022-10-14T04:03:23.998Z,23.08
2022-10-14T04:05:52.525Z,23.05
2022-10-14T04:08:26.516Z,23.16
2022-10-14T04:11:11.330Z,23.14
2022-10-14T04:14:14.428Z,23.11
2022-10-14T04:16:52.328Z,23.13
2022-10-14T04:19:29.278Z,23.18
2022-10-14T04:22:05.343Z,23.20
2022-10-14T04:24:37.190Z,23.17
2022-10-14T04:27:08.742Z,23.18
2022-10-14T04:29:54.660Z,23.15
2022-10-14T04:32:31.515Z,23.20
2022-10-14T04:35:10.679Z,23.19
2022-10-14T04:37:49.314Z,23.15
2022-10-14T04:40:29.221Z,23.17
2022-10-14T04:43:04.359Z,23.19
2022-10-14T04:45:41.323Z,22.89
2022-10-14T04:51:30.419Z,23.12
2022-10-14T04:54:28.419Z,22.96
2022-10-14T04:57:05.064Z,22.94
2022-10-14T04:59:39.553Z,22.99
2022-10-14T05:02:12.742Z,22.98
2022-10-14T05:05:02.762Z,22.99
2022-10-14T05:07:38.003Z,23.06
2022-10-14T05:10:42.628Z,23.06
2022-10-14T05:13:23.594Z,23.06
2022-10-14T05:16:06.698Z,23.03
2022-10-14T05:18:38.997Z,23.07
2022-10-14T05:21:15.741Z,23.08
2022-10-14T05:24:09.218Z,23.12
2022-10-14T05:26:48.948Z,23.11
2022-10-14T05:29:26.936Z,23.09
2022-10-14T05:31:58.239Z,23.06
2022-10-14T05:34:46.385Z,23.03
2022-10-14T05:37:25.158Z,22.98
2022-10-14T05:39:58.209Z,23.07
2022-10-14T05:42:27.692Z,23.06
2022-10-14T05:44:58.229Z,23.09
2022-10-14T05:47:27.214Z,23.07
2022-10-14T05:49:59.588Z,23.08
2022-10-14T05:52:33.499Z,23.09
2022-10-14T05:55:05.509Z,23.09
2022-10-14T05:57:34.133Z,23.09
2022-10-14T06:00:02.256Z,23.04
2022-10-14T06:02:33.567Z,23.02
2022-10-14T06:05:03.993Z,23.02
2022-10-14T06:07:32.499Z,22.93
2022-10-14T06:10:00.593Z,22.99
2022-10-14T06:12:28.353Z,22.97
2022-10-14T06:14:56.369Z,22.97
2022-10-14T06:17:27.130Z,22.93
2022-10-14T06:19:57.644Z,23.00
2022-10-14T06:22:31.440Z,22.99
2022-10-14T06:25:03.973Z,23.00
2022-10-14T06:27:32.946Z,22.95
2022-10-14T06:30:00.720Z,22.92
2022-10-14T06:32:29.104Z,22.96
2022-10-14T06:34:57.628Z,22.94
2022-10-14T06:37:25.938Z,22.96
2022-10-14T06:40:01.146Z,22.96
2022-10-14T06:42:29.123Z,22.98
2022-10-14T06:45:05.128Z,22.97
2022-10-14T06:47:45.981Z,22.87
2022-10-14T06:50:23.092Z,22.95
2022-10-14T06:52:53.812Z,22.98
2022-10-14T06:55:21.775Z,22.94
2022-10-14T06:57:52.662Z,23.04
2022-10-14T07:00:20.776Z,23.03
2022-10-14T07:02:48.705Z,23.01
2022-10-14T07:05:20.315Z,23.06
2022-10-14T07:07:48.079Z,23.10
2022-10-14T07:10:21.767Z,23.15
2022-10-14T07:12:49.963Z,23.20
2022-10-14T07:15:18.287Z,23.19
2022-10-14T07:17:46.101Z,23.18
2022-10-14T07:20:13.865Z,23.27
2022-10-14T07:22:41.528Z,23.23
2022-10-14T07:25:09.492Z,23.25
2022-10-14T07:27:36.995Z,23.24
2022-10-14T07:30:06.144Z,23.35
2022-10-14T07:32:37.595Z,23.37
2022-10-14T07:35:07.814Z,23.41
2022-10-14T07:37:37.168Z,23.42
2022-10-14T07:40:07.856Z,23.44
2022-10-14T07:42:39.424Z,23.44
2022-10-14T07:45:08.002Z,23.49
2022-10-14T07:47:35.952Z,23.50
2022-10-14T07:50:07.564Z,23.56
2022-10-14T07:52:36.389Z,23.53
2022-10-14T07:55:05.759Z,23.55
2022-10-14T07:57:33.882Z,23.64
2022-10-14T08:00:01.945Z,23.87
2022-10-14T08:02:42.143Z,24.13
2022-10-14T08:07:59.296Z,24.77
2022-10-14T08:10:28.950Z,25.10
2022-10-14T08:12:58.241Z,25.42
2022-10-14T08:15:29.091Z,25.80
2022-10-14T08:17:57.474Z,26.16
2022-10-14T08:20:25.482Z,26.47
2022-10-14T08:22:53.180Z,26.71
2022-10-14T08:25:20.967Z,26.74
2022-10-14T08:27:51.790Z,26.88
2022-10-14T08:30:20.855Z,27.04
2022-10-14T08:32:49.065Z,27.28
2022-10-14T08:35:16.932Z,27.52
2022-10-14T08:37:44.905Z,27.71
2022-10-14T08:40:17.472Z,27.82
2022-10-14T08:42:55.170Z,28.06
2022-10-14T08:45:35.418Z,28.15
2022-10-14T08:48:11.593Z,28.39
2022-10-14T08:50:54.101Z,28.60
2022-10-14T08:53:39.170Z,28.72
2022-10-14T08:56:09.562Z,28.87
2022-10-14T08:58:46.941Z,29.06
2022-10-14T09:01:33.743Z,29.01
2022-10-14T09:04:07.949Z,29.18
2022-10-14T09:06:46.764Z,29.24
2022-10-14T09:09:45.833Z,29.43
2022-10-14T09:12:33.734Z,29.56
2022-10-14T09:15:34.966Z,29.34
2022-10-14T09:18:26.022Z,29.69
2022-10-14T09:20:57.881Z,29.71
2022-10-14T09:26:40.947Z,29.81
2022-10-14T09:29:53.692Z,30.00
2022-10-14T09:32:29.494Z,30.07
2022-10-14T09:35:01.520Z,30.52
2022-10-14T09:37:34.129Z,30.35
2022-10-14T09:40:17.460Z,30.62
2022-10-14T09:42:52.719Z,30.51
2022-10-14T09:45:25.483Z,30.63
2022-10-14T09:48:05.811Z,30.68
2022-10-14T09:50:49.486Z,30.72
2022-10-14T09:53:48.685Z,30.57
2022-10-14T09:56:20.784Z,31.17
2022-10-14T09:58:57.278Z,31.09
2022-10-14T10:01:32.328Z,31.20
2022-10-14T10:04:33.090Z,31.43
2022-10-14T10:07:07.049Z,31.47
2022-10-14T10:09:35.339Z,31.62
2022-10-14T10:12:33.554Z,31.71
2022-10-14T10:15:06.003Z,31.93
2022-10-14T10:17:38.999Z,31.92
2022-10-14T10:20:24.292Z,31.62
2022-10-14T10:22:52.751Z,31.38
2022-10-14T10:25:26.825Z,32.17
2022-10-14T10:27:58.435Z,32.00
2022-10-14T10:30:29.543Z,32.05
2022-10-14T10:33:27.348Z,32.64
2022-10-14T10:36:24.881Z,32.36
2022-10-14T10:39:17.712Z,32.47
2022-10-14T10:41:54.615Z,32.77
2022-10-14T10:44:35.725Z,32.34
2022-10-14T10:47:46.209Z,32.12
2022-10-14T10:50:27.791Z,32.35
2022-10-14T10:53:14.632Z,32.38
2022-10-14T10:56:01.346Z,32.95
2022-10-14T10:59:05.315Z,32.97
2022-10-14T11:01:38.788Z,32.72
2022-10-14T11:04:43.224Z,32.82
2022-10-14T11:07:58.547Z,32.61
2022-10-14T11:11:04.976Z,32.75
2022-10-14T11:14:18.145Z,33.50
2022-10-14T11:17:10.640Z,33.64
2022-10-14T11:19:43.929Z,33.58
2022-10-14T11:22:29.414Z,33.78
2022-10-14T11:25:28.060Z,33.76
2022-10-14T11:28:31.608Z,34.22
2022-10-14T11:31:04.082Z,33.71
2022-10-14T11:33:44.999Z,34.08
2022-10-14T11:36:25.522Z,33.93
2022-10-14T11:39:21.791Z,34.30
2022-10-14T11:42:05.374Z,34.25
2022-10-14T11:44:38.671Z,34.27
2022-10-14T11:47:11.507Z,34.43
2022-10-14T11:50:06.267Z,34.47
2022-10-14T11:52:40.888Z,34.67
2022-10-14T11:55:32.445Z,34.59
2022-10-14T11:58:07.024Z,35.08
2022-10-14T12:00:37.724Z,35.38
2022-10-14T12:03:44.786Z,35.49
2022-10-14T12:06:50.297Z,35.22
2022-10-14T12:09:51.718Z,35.01
2022-10-14T12:12:37.280Z,35.36
2022-10-14T12:15:25.879Z,35.33
2022-10-14T12:18:07.812Z,35.34
2022-10-14T12:21:17.779Z,35.84
2022-10-14T12:24:11.442Z,35.73
2022-10-14T12:26:58.816Z,36.21
2022-10-14T12:29:36.989Z,36.28
2022-10-14T12:32:13.679Z,36.38
2022-10-14T12:34:44.152Z,36.65
2022-10-14T12:37:32.727Z,36.82
2022-10-14T12:40:19.387Z,36.54
2022-10-14T12:43:16.444Z,36.32
2022-10-14T12:46:22.198Z,36.28
2022-10-14T12:49:03.273Z,36.62
2022-10-14T12:52:02.984Z,36.76
2022-10-14T12:54:49.405Z,35.69
2022-10-14T12:57:34.367Z,36.30
2022-10-14T13:00:27.659Z,36.52
2022-10-14T13:03:10.119Z,36.41
2022-10-14T13:05:56.810Z,36.36
2022-10-14T13:08:29.779Z,36.47
2022-10-14T13:11:20.925Z,36.47
2022-10-14T13:14:00.686Z,36.18
2022-10-14T13:16:31.158Z,36.90
2022-10-14T13:19:09.910Z,36.89
2022-10-14T13:21:47.097Z,37.13
2022-10-14T13:24:45.986Z,36.81
2022-10-14T13:28:06.714Z,36.72
2022-10-14T13:30:49.268Z,36.52
2022-10-14T13:43:31.696Z,36.89
2022-10-14T13:46:05.375Z,37.00
2022-10-14T13:48:40.711Z,36.93
2022-10-14T13:51:32.029Z,36.94
2022-10-14T13:54:19.124Z,36.73
2022-10-14T14:02:55.108Z,36.46
2022-10-14T14:05:35.481Z,36.86
2022-10-14T14:08:41.157Z,36.07
2022-10-14T14:11:43.304Z,35.66
2022-10-14T14:14:41.388Z,35.92
2022-10-14T14:17:28.960Z,35.71
2022-10-14T14:20:12.691Z,34.92
2022-10-14T14:22:48.439Z,35.02
2022-10-14T14:25:34.533Z,34.58
2022-10-14T14:28:23.467Z,34.61
2022-10-14T14:31:01.802Z,34.31
2022-10-14T14:33:34.633Z,33.96
2022-10-14T14:36:05.527Z,33.45
2022-10-14T14:38:36.261Z,33.45
2022-10-14T14:41:20.774Z,33.46
2022-10-14T14:44:24.011Z,33.06
2022-10-14T14:46:47.860Z,32.88
2022-10-14T14:49:26.658Z,32.57
2022-10-14T14:51:55.471Z,32.53
2022-10-14T14:54:24.645Z,32.40
2022-10-14T14:57:00.985Z,32.46
2022-10-14T14:59:33.384Z,32.45
2022-10-14T15:02:03.701Z,32.40
2022-10-14T15:04:35.776Z,31.74
2022-10-14T15:07:20.132Z,31.51
2022-10-14T15:09:57.099Z,31.67
2022-10-14T15:12:25.767Z,31.52
2022-10-14T15:14:58.407Z,31.02
2022-10-14T15:17:38.670Z,31.23
2022-10-14T15:20:12.492Z,31.12
2022-10-14T15:22:44.222Z,30.93
2022-10-14T15:25:38.234Z,30.73
2022-10-14T15:28:32.862Z,30.70
2022-10-14T15:31:09.739Z,30.62
2022-10-14T15:33:39.452Z,30.53
2022-10-14T15:36:11.560Z,30.52
2022-10-14T15:38:45.737Z,30.56
2022-10-14T15:41:19.900Z,30.36
2022-10-14T15:43:49.295Z,30.27
2022-10-14T15:46:36.423Z,29.97
2022-10-14T15:49:12.302Z,30.06
2022-10-14T15:51:43.763Z,30.13
2022-10-14T15:54:13.436Z,29.94
2022-10-14T15:56:41.368Z,29.87
2022-10-14T15:59:16.016Z,29.76
2022-10-14T16:01:45.984Z,29.68
2022-10-14T16:04:25.280Z,29.56
2022-10-14T16:06:57.084Z,29.55
2022-10-14T16:09:28.072Z,29.63
2022-10-14T16:11:58.474Z,29.49
2022-10-14T16:14:30.358Z,29.57
2022-10-14T16:16:58.502Z,29.47
2022-10-14T16:19:25.971Z,29.57
2022-10-14T16:21:53.633Z,29.50
2022-10-14T16:24:25.866Z,29.29
2022-10-14T16:27:03.783Z,29.18
2022-10-14T16:29:45.884Z,29.12
2022-10-14T16:32:25.108Z,29.05
2022-10-14T16:35:07.496Z,28.92
2022-10-14T16:37:52.076Z,29.09
2022-10-14T16:40:41.087Z,28.97
2022-10-14T16:43:23.237Z,28.86
2022-10-14T16:46:03.989Z,28.68
2022-10-14T16:48:41.640Z,28.60
2022-10-14T16:51:25.482Z,28.46
2022-10-14T16:54:26.011Z,28.27
2022-10-14T16:57:19.177Z,28.20
2022-10-14T17:00:10.019Z,28.30
2022-10-14T17:03:08.306Z,28.04
2022-10-14T17:05:41.074Z,27.96
2022-10-14T17:08:39.844Z,27.92
2022-10-14T17:11:22.093Z,27.76
2022-10-14T17:14:14.634Z,27.90
2022-10-14T17:16:59.021Z,27.83
2022-10-14T17:19:45.303Z,27.84
2022-10-14T17:22:41.422Z,27.88
2022-10-14T17:25:20.629Z,27.84
2022-10-14T17:27:56.341Z,27.57
2022-10-14T17:30:51.659Z,27.72
2022-10-14T17:34:29.702Z,27.54
2022-10-14T17:37:31.597Z,27.44
2022-10-14T17:40:33.607Z,27.39
2022-10-14T17:43:16.364Z,27.54
2022-10-14T17:45:52.116Z,27.36
2022-10-14T17:48:37.407Z,27.34
2022-10-14T17:51:35.356Z,27.37
2022-10-14T17:54:23.103Z,27.46
2022-10-14T17:57:07.805Z,27.39
2022-10-14T18:00:06.438Z,27.37
2022-10-14T18:02:59.555Z,27.42
2022-10-14T18:05:37.131Z,27.42
2022-10-14T18:08:19.346Z,27.38
2022-10-14T18:11:17.125Z,27.33
2022-10-14T18:14:04.960Z,27.24
2022-10-14T18:16:50.203Z,27.25
2022-10-14T18:19:27.846Z,27.42
2022-10-14T18:22:07.064Z,27.34
2022-10-14T18:24:43.623Z,27.31
2022-10-14T18:27:36.374Z,27.31
2022-10-14T18:30:15.052Z,27.29
2022-10-14T18:32:52.622Z,27.39
2022-10-14T18:35:34.865Z,27.16
2022-10-14T18:38:24.629Z,27.26
2022-10-14T18:41:22.326Z,27.29
2022-10-14T18:44:32.223Z,27.27
2022-10-14T18:50:10.070Z,27.13
2022-10-14T19:05:48.857Z,27.03
2022-10-14T19:08:55.893Z,27.00
2022-10-14T19:11:58.282Z,27.11
2022-10-14T19:14:41.078Z,26.94
2022-10-14T19:17:16.501Z,26.99
2022-10-14T19:20:07.438Z,26.95
2022-10-14T19:22:45.505Z,26.91
2022-10-14T19:25:45.156Z,26.85
2022-10-14T19:28:56.536Z,26.86
2022-10-14T19:31:37.515Z,26.85
2022-10-14T19:34:28.137Z,26.86
2022-10-14T19:37:13.793Z,26.85
2022-10-14T19:40:08.321Z,26.85
2022-10-14T19:42:54.659Z,26.92
2022-10-14T19:45:30.840Z,26.91
2022-10-14T19:48:20.487Z,26.91
2022-10-14T19:50:57.456Z,26.83
2022-10-14T19:53:34.701Z,26.86
2022-10-14T19:56:14.826Z,26.84
2022-10-14T19:59:26.127Z,26.75
2022-10-14T20:02:28.710Z,26.74
2022-10-14T20:08:30.709Z,26.80
2022-10-14T20:11:31.598Z,26.75
2022-10-14T20:14:28.793Z,26.68
2022-10-14T20:20:13.062Z,26.70
2022-10-14T20:22:55.546Z,26.71
2022-10-14T20:28:47.005Z,26.69
2022-10-14T20:31:34.287Z,26.67
2022-10-14T20:34:23.043Z,26.69
2022-10-14T20:44:24.526Z,26.48
2022-10-14T20:47:03.273Z,26.43
2022-10-14T20:49:38.722Z,26.43
2022-10-14T20:52:51.287Z,26.45
2022-10-14T20:55:33.770Z,26.38
2022-10-14T20:58:04.183Z,26.35
2022-10-14T21:00:35.660Z,26.29
2022-10-14T21:03:08.169Z,26.39
2022-10-14T21:05:38.493Z,26.32
2022-10-14T21:08:11.632Z,26.32
2022-10-14T21:10:39.187Z,26.32
2022-10-14T21:13:09.618Z,26.34
2022-10-14T21:15:41.943Z,26.34
2022-10-14T21:18:10.799Z,26.28
2022-10-14T21:20:43.507Z,26.31
2022-10-14T21:23:16.308Z,26.29
2022-10-14T21:25:47.503Z,26.30
2022-10-14T21:28:18.877Z,26.27
2022-10-14T21:30:52.237Z,26.23
2022-10-14T21:33:24.307Z,26.24
2022-10-14T21:35:55.756Z,26.23
2022-10-14T21:38:26.778Z,26.25
2022-10-14T21:41:02.300Z,26.20
2022-10-14T21:43:48.659Z,26.21
2022-10-14T21:46:22.446Z,26.12
2022-10-14T21:48:57.961Z,26.08
2022-10-14T21:51:32.120Z,26.04
2022-10-14T21:54:12.678Z,26.09
2022-10-14T21:56:42.871Z,26.12
2022-10-14T21:59:11.605Z,26.10
2022-10-14T22:01:42.058Z,26.03
2022-10-14T22:04:21.430Z,26.05
2022-10-14T22:06:50.917Z,26.01
2022-10-14T22:09:18.204Z,25.99
2022-10-14T22:11:45.604Z,25.96
2022-10-14T22:14:17.243Z,25.86
2022-10-14T22:16:55.236Z,25.85
2022-10-14T22:19:25.145Z,25.93
2022-10-14T22:21:52.543Z,25.89
2022-10-14T22:24:19.632Z,25.86
2022-10-14T22:26:52.434Z,25.79
2022-10-14T22:29:22.967Z,25.81
2022-10-14T22:31:53.289Z,25.76
2022-10-14T22:34:22.683Z,25.72
2022-10-14T22:36:49.782Z,25.73
2022-10-14T22:39:17.857Z,25.68
2022-10-14T22:41:47.536Z,25.74
2022-10-14T22:44:14.691Z,25.67
2022-10-14T22:46:44.897Z,25.61
2022-10-14T22:49:13.155Z,25.60
2022-10-14T22:51:43.915Z,25.64
2022-10-14T22:54:13.309Z,25.58
2022-10-14T22:56:43.666Z,25.55
2022-10-14T22:59:14.266Z,25.48
2022-10-14T23:01:46.063Z,25.47
2022-10-14T23:04:16.659Z,25.45
2022-10-14T23:06:49.424Z,25.43
2022-10-14T23:09:16.811Z,25.38
2022-10-14T23:11:47.317Z,25.41
2022-10-14T23:14:17.184Z,25.36
2022-10-14T23:16:46.967Z,25.38
2022-10-14T23:19:15.300Z,25.34
2022-10-14T23:21:45.795Z,25.31
2022-10-14T23:24:12.899Z,25.32
2022-10-14T23:26:43.147Z,25.34
2022-10-14T23:29:11.930Z,25.29
2022-10-14T23:31:40.927Z,25.13
2022-10-14T23:34:12.293Z,25.19
2022-10-14T23:36:39.908Z,25.12
2022-10-14T23:39:07.392Z,25.13
2022-10-14T23:41:34.736Z,25.08
2022-10-14T23:44:01.962Z,24.99
2022-10-14T23:46:29.386Z,25.01
2022-10-14T23:49:06.792Z,25.02
2022-10-14T23:51:43.897Z,25.09
2022-10-14T23:54:13.166Z,25.00
2022-10-14T23:56:40.375Z,24.96
2022-10-14T23:59:08.381Z,24.98
